N22418 KPDK-
Flight info
| Callsign | N22418 |
|---|---|
| Flight time | N/A |
| Altitude | |
| Route | SOUTH |
| Aircraft | C172/L-DOV/C |
Departure
| Time | 2026-04-19 16:48 |
|---|---|
| Airport | DeKalb Peachtree Airport (KPDK) |
Arrival
| Time | N/A |
|---|---|
| Airport | - |
| Time | Latitude | Longitude | Altitude | Speed | Heading |
|---|---|---|---|---|---|
| 2026-04-19 16:40 | 33.88362 | -84.30144 | 993 ft | 0 kts | 1° |
| 2026-04-19 16:42 | 33.88376 | -84.30129 | 993 ft | 0 kts | 336° |
| 2026-04-19 16:42 | 33.88362 | -84.30144 | 993 ft | 0 kts | 1° |
| 2026-04-19 16:43 | 33.88366 | -84.30146 | 993 ft | 0 kts | 311° |
| 2026-04-19 16:43 | 33.88364 | -84.30162 | 996 ft | 6 kts | 217° |
| 2026-04-19 16:43 | 33.88289 | -84.30128 | 993 ft | 16 kts | 162° |
| 2026-04-19 16:44 | 33.88187 | -84.30069 | 990 ft | 17 kts | 191° |
| 2026-04-19 16:44 | 33.88067 | -84.30122 | 990 ft | 20 kts | 200° |
| 2026-04-19 16:44 | 33.87927 | -84.30186 | 985 ft | 24 kts | 200° |
| 2026-04-19 16:44 | 33.87771 | -84.30256 | 987 ft | 22 kts | 206° |
| 2026-04-19 16:45 | 33.87625 | -84.30319 | 990 ft | 22 kts | 199° |
| 2026-04-19 16:45 | 33.87481 | -84.30385 | 992 ft | 23 kts | 201° |
| 2026-04-19 16:45 | 33.87331 | -84.30453 | 996 ft | 23 kts | 201° |
| 2026-04-19 16:45 | 33.87182 | -84.30516 | 997 ft | 24 kts | 193° |
| 2026-04-19 16:46 | 33.87045 | -84.30578 | 999 ft | 21 kts | 207° |
| 2026-04-19 16:46 | 33.86925 | -84.30600 | 998 ft | 4 kts | 111° |
| 2026-04-19 16:46 | 33.86925 | -84.30594 | 998 ft | 0 kts | 67° |
| 2026-04-19 16:47 | 33.86929 | -84.30576 | 999 ft | 9 kts | 73° |
| 2026-04-19 16:47 | 33.87037 | -84.30496 | 998 ft | 38 kts | 21° |
| 2026-04-19 16:48 | 33.87430 | -84.30320 | 1014 ft | 77 kts | 17° |
| 2026-04-19 16:48 | 33.87965 | -84.30182 | 1229 ft | 73 kts | 4° |
| 2026-04-19 16:48 | 33.88500 | -84.30164 | 1423 ft | 78 kts | 335° |
| 2026-04-19 16:48 | 33.88755 | -84.30695 | 1637 ft | 76 kts | 294° |
| 2026-04-19 16:49 | 33.88972 | -84.31283 | 1879 ft | 77 kts | 293° |
| 2026-04-19 16:49 | 33.89181 | -84.31990 | 1871 ft | 104 kts | 283° |
| 2026-04-19 16:49 | 33.89299 | -84.32935 | 1815 ft | 123 kts | 272° |
| 2026-04-19 16:49 | 33.89321 | -84.33987 | 1777 ft | 127 kts | 272° |
| 2026-04-19 16:50 | 33.89348 | -84.35038 | 1774 ft | 127 kts | 272° |
| 2026-04-19 16:50 | 33.89375 | -84.36103 | 1767 ft | 127 kts | 272° |
| 2026-04-19 16:50 | 33.89402 | -84.37167 | 1769 ft | 127 kts | 272° |
| 2026-04-19 16:50 | 33.89428 | -84.38226 | 1774 ft | 126 kts | 272° |
| 2026-04-19 16:51 | 33.89456 | -84.39252 | 1779 ft | 110 kts | 274° |
| 2026-04-19 16:51 | 33.89482 | -84.40118 | 1743 ft | 107 kts | 271° |
| 2026-04-19 16:51 | 33.89499 | -84.41007 | 1921 ft | 104 kts | 271° |
| 2026-04-19 16:51 | 33.89516 | -84.41882 | 2083 ft | 105 kts | 272° |
| 2026-04-19 16:52 | 33.89535 | -84.42758 | 2227 ft | 105 kts | 272° |
| 2026-04-19 16:52 | 33.89552 | -84.43639 | 2392 ft | 105 kts | 272° |
| 2026-04-19 16:52 | 33.89571 | -84.44518 | 2551 ft | 105 kts | 272° |
| 2026-04-19 16:52 | 33.89588 | -84.45408 | 2748 ft | 109 kts | 272° |
| 2026-04-19 16:53 | 33.89614 | -84.46373 | 2768 ft | 121 kts | 272° |
| 2026-04-19 16:53 | 33.89614 | -84.47410 | 2767 ft | 127 kts | 262° |
| 2026-04-19 16:53 | 33.89384 | -84.48431 | 2769 ft | 127 kts | 258° |
| 2026-04-19 16:53 | 33.89366 | -84.49480 | 2772 ft | 125 kts | 273° |
| 2026-04-19 16:54 | 33.89397 | -84.50537 | 2770 ft | 127 kts | 272° |
| 2026-04-19 16:54 | 33.89423 | -84.51598 | 2770 ft | 127 kts | 272° |
| 2026-04-19 16:54 | 33.89453 | -84.52670 | 2771 ft | 128 kts | 272° |
| 2026-04-19 16:54 | 33.89460 | -84.53745 | 2767 ft | 129 kts | 262° |
| 2026-04-19 16:55 | 33.88933 | -84.54571 | 2749 ft | 130 kts | 205° |
| 2026-04-19 16:55 | 33.87572 | -84.53572 | 2751 ft | 130 kts | 114° |
| 2026-04-19 16:55 | 33.87217 | -84.52584 | 2763 ft | 131 kts | 114° |
| 2026-04-19 16:56 | 33.86852 | -84.51578 | 2759 ft | 131 kts | 114° |
| 2026-04-19 16:56 | 33.86493 | -84.50585 | 2761 ft | 129 kts | 114° |
| 2026-04-19 16:56 | 33.86139 | -84.49602 | 2757 ft | 127 kts | 114° |
| 2026-04-19 16:56 | 33.85780 | -84.48608 | 2766 ft | 130 kts | 115° |
| 2026-04-19 16:57 | 33.85416 | -84.47603 | 2761 ft | 131 kts | 114° |
| 2026-04-19 16:57 | 33.85056 | -84.46608 | 2760 ft | 129 kts | 114° |
| 2026-04-19 16:57 | 33.84699 | -84.45615 | 2762 ft | 130 kts | 114° |
| 2026-04-19 16:57 | 33.84340 | -84.44618 | 2760 ft | 129 kts | 114° |
| 2026-04-19 16:58 | 33.83985 | -84.43632 | 2765 ft | 129 kts | 115° |
| 2026-04-19 16:58 | 33.83625 | -84.42635 | 2757 ft | 131 kts | 114° |
| 2026-04-19 16:58 | 33.83265 | -84.41633 | 2760 ft | 130 kts | 114° |
| 2026-04-19 16:58 | 33.82906 | -84.40636 | 2760 ft | 129 kts | 114° |
| 2026-04-19 16:59 | 33.82552 | -84.39650 | 2757 ft | 128 kts | 114° |
| 2026-04-19 16:59 | 33.82198 | -84.38666 | 2772 ft | 129 kts | 114° |
| 2026-04-19 16:59 | 33.81841 | -84.37677 | 2763 ft | 127 kts | 114° |
| 2026-04-19 16:59 | 33.81485 | -84.36703 | 2769 ft | 127 kts | 115° |
| 2026-04-19 17:00 | 33.81129 | -84.35722 | 2768 ft | 129 kts | 114° |
| 2026-04-19 17:00 | 33.80771 | -84.34735 | 2757 ft | 127 kts | 115° |
| 2026-04-19 17:00 | 33.80420 | -84.33759 | 2772 ft | 129 kts | 114° |
| 2026-04-19 17:00 | 33.80069 | -84.32780 | 2769 ft | 126 kts | 115° |
| 2026-04-19 17:01 | 33.79714 | -84.31799 | 2756 ft | 127 kts | 115° |
| 2026-04-19 17:01 | 33.79375 | -84.30862 | 2751 ft | 122 kts | 114° |
| 2026-04-19 17:01 | 33.79145 | -84.30234 | 2763 ft | 123 kts | 118° |
| 2026-04-19 17:01 | 33.78234 | -84.29633 | 2766 ft | 116 kts | 176° |
| 2026-04-19 17:02 | 33.77411 | -84.29512 | 2772 ft | 123 kts | 174° |
| 2026-04-19 17:02 | 33.76550 | -84.29383 | 2765 ft | 126 kts | 174° |
| 2026-04-19 17:02 | 33.75702 | -84.29255 | 2758 ft | 120 kts | 174° |
| 2026-04-19 17:02 | 33.74882 | -84.29131 | 2756 ft | 119 kts | 174° |
| 2026-04-19 17:03 | 33.74049 | -84.29003 | 2766 ft | 123 kts | 175° |
| 2026-04-19 17:03 | 33.73467 | -84.28917 | 2756 ft | 124 kts | 174° |
| 2026-04-19 17:03 | 33.72627 | -84.28789 | 2767 ft | 122 kts | 174° |
| 2026-04-19 17:03 | 33.71788 | -84.28677 | 2755 ft | 120 kts | 174° |
| 2026-04-19 17:04 | 33.71143 | -84.28126 | 2752 ft | 120 kts | 115° |
| 2026-04-19 17:04 | 33.71135 | -84.27149 | 2770 ft | 120 kts | 84° |
| 2026-04-19 17:04 | 33.71225 | -84.26129 | 2761 ft | 122 kts | 84° |
| 2026-04-19 17:04 | 33.71315 | -84.25112 | 2772 ft | 124 kts | 85° |
| 2026-04-19 17:05 | 33.71409 | -84.24061 | 2773 ft | 128 kts | 85° |
| 2026-04-19 17:05 | 33.71502 | -84.23003 | 2767 ft | 125 kts | 83° |
| 2026-04-19 17:05 | 33.71593 | -84.21980 | 2762 ft | 121 kts | 84° |
| 2026-04-19 17:05 | 33.71686 | -84.20958 | 2758 ft | 125 kts | 84° |
| 2026-04-19 17:06 | 33.71778 | -84.19932 | 2752 ft | 122 kts | 84° |
| 2026-04-19 17:06 | 33.71869 | -84.18932 | 2764 ft | 121 kts | 84° |
| 2026-04-19 17:06 | 33.71961 | -84.17908 | 2764 ft | 126 kts | 84° |
| 2026-04-19 17:06 | 33.72061 | -84.16850 | 2763 ft | 128 kts | 84° |
| 2026-04-19 17:07 | 33.72157 | -84.15800 | 2768 ft | 129 kts | 84° |
| 2026-04-19 17:07 | 33.72249 | -84.14741 | 2768 ft | 127 kts | 84° |
| 2026-04-19 17:07 | 33.72342 | -84.13690 | 2766 ft | 125 kts | 84° |
| 2026-04-19 17:07 | 33.72442 | -84.12638 | 2769 ft | 128 kts | 84° |
| 2026-04-19 17:08 | 33.72542 | -84.11576 | 2767 ft | 127 kts | 84° |
| 2026-04-19 17:08 | 33.72640 | -84.10512 | 2771 ft | 129 kts | 84° |
| 2026-04-19 17:08 | 33.72738 | -84.09443 | 2767 ft | 129 kts | 84° |
| 2026-04-19 17:08 | 33.72836 | -84.08372 | 2757 ft | 127 kts | 84° |
| 2026-04-19 17:09 | 33.72931 | -84.07320 | 2757 ft | 126 kts | 84° |
| 2026-04-19 17:09 | 33.73030 | -84.06248 | 2753 ft | 131 kts | 84° |
| 2026-04-19 17:09 | 33.73126 | -84.05182 | 2755 ft | 126 kts | 88° |
| 2026-04-19 17:09 | 33.72797 | -84.04274 | 2763 ft | 123 kts | 146° |
| 2026-04-19 17:10 | 33.71990 | -84.04179 | 2762 ft | 120 kts | 207° |
| 2026-04-19 17:10 | 33.71488 | -84.04937 | 2768 ft | 118 kts | 245° |
| 2026-04-19 17:10 | 33.71120 | -84.05812 | 2767 ft | 118 kts | 244° |
| 2026-04-19 17:10 | 33.70747 | -84.06687 | 2767 ft | 118 kts | 244° |
| 2026-04-19 17:11 | 33.70376 | -84.07561 | 2769 ft | 120 kts | 244° |
| 2026-04-19 17:11 | 33.69990 | -84.08478 | 2757 ft | 124 kts | 244° |
| 2026-04-19 17:11 | 33.69601 | -84.09407 | 2767 ft | 127 kts | 244° |
| 2026-04-19 17:11 | 33.69208 | -84.10362 | 2760 ft | 125 kts | 244° |
| 2026-04-19 17:12 | 33.68823 | -84.11276 | 2756 ft | 121 kts | 244° |
| 2026-04-19 17:12 | 33.68442 | -84.12179 | 2762 ft | 123 kts | 244° |
| 2026-04-19 17:12 | 33.68057 | -84.13091 | 2752 ft | 122 kts | 244° |
| 2026-04-19 17:12 | 33.67679 | -84.13998 | 2754 ft | 122 kts | 244° |
| 2026-04-19 17:13 | 33.67297 | -84.14898 | 2752 ft | 120 kts | 244° |
| 2026-04-19 17:13 | 33.66919 | -84.15787 | 2758 ft | 120 kts | 244° |
| 2026-04-19 17:13 | 33.66544 | -84.16679 | 2759 ft | 120 kts | 244° |
| 2026-04-19 17:13 | 33.66165 | -84.17570 | 2757 ft | 120 kts | 244° |
| 2026-04-19 17:14 | 33.65792 | -84.18461 | 2755 ft | 119 kts | 244° |
| 2026-04-19 17:14 | 33.65421 | -84.19346 | 2760 ft | 119 kts | 244° |
| 2026-04-19 17:14 | 33.65043 | -84.20238 | 2755 ft | 121 kts | 244° |
| 2026-04-19 17:14 | 33.64663 | -84.21136 | 2754 ft | 122 kts | 244° |
| 2026-04-19 17:15 | 33.64296 | -84.22029 | 2780 ft | 118 kts | 245° |
| 2026-04-19 17:15 | 33.64004 | -84.22913 | 2817 ft | 111 kts | 253° |
| 2026-04-19 17:15 | 33.63771 | -84.23795 | 2846 ft | 111 kts | 252° |
| 2026-04-19 17:15 | 33.63477 | -84.24639 | 2848 ft | 109 kts | 245° |
| 2026-04-19 17:16 | 33.63179 | -84.25488 | 2819 ft | 111 kts | 250° |
| 2026-04-19 17:16 | 33.63061 | -84.26394 | 2787 ft | 114 kts | 279° |
| 2026-04-19 17:16 | 33.63157 | -84.27282 | 2796 ft | 108 kts | 273° |
| 2026-04-19 17:16 | 33.63158 | -84.28184 | 2742 ft | 106 kts | 271° |
| 2026-04-19 17:17 | 33.63168 | -84.29054 | 2768 ft | 103 kts | 271° |
| 2026-04-19 17:17 | 33.63169 | -84.29911 | 2767 ft | 105 kts | 270° |
| 2026-04-19 17:17 | 33.63145 | -84.30780 | 2820 ft | 103 kts | 264° |
| 2026-04-19 17:17 | 33.63142 | -84.31660 | 2776 ft | 108 kts | 271° |
| 2026-04-19 17:18 | 33.63144 | -84.32594 | 2632 ft | 117 kts | 271° |
| 2026-04-19 17:18 | 33.63150 | -84.33564 | 2425 ft | 116 kts | 270° |
| 2026-04-19 17:18 | 33.63140 | -84.34528 | 2238 ft | 114 kts | 271° |
| 2026-04-19 17:18 | 33.63143 | -84.35463 | 2128 ft | 110 kts | 266° |
| 2026-04-19 17:19 | 33.63126 | -84.36363 | 2029 ft | 111 kts | 274° |
| 2026-04-19 17:19 | 33.63141 | -84.37247 | 1898 ft | 99 kts | 271° |
| 2026-04-19 17:19 | 33.63130 | -84.38064 | 1723 ft | 99 kts | 269° |
| 2026-04-19 17:19 | 33.63146 | -84.38889 | 1580 ft | 99 kts | 271° |
| 2026-04-19 17:20 | 33.63137 | -84.39709 | 1449 ft | 98 kts | 271° |
| 2026-04-19 17:20 | 33.63156 | -84.40517 | 1302 ft | 90 kts | 271° |
| 2026-04-19 17:20 | 33.63170 | -84.41247 | 1162 ft | 82 kts | 271° |
| 2026-04-19 17:20 | 33.63177 | -84.41914 | 1052 ft | 76 kts | 271° |
| 2026-04-19 17:21 | 33.63180 | -84.42526 | 995 ft | 69 kts | 271° |
| 2026-04-19 17:21 | 33.63193 | -84.42997 | 1007 ft | 44 kts | 274° |
| 2026-04-19 17:21 | 33.63237 | -84.43171 | 1012 ft | 0 kts | 16° |
| 2026-04-19 17:22 | 33.63237 | -84.43170 | 1012 ft | 1 kts | 16° |
| 2026-04-19 17:22 | 33.63259 | -84.43124 | 1010 ft | 15 kts | 62° |
| 2026-04-19 17:22 | 33.63333 | -84.42952 | 1005 ft | 30 kts | 68° |
| 2026-04-19 17:22 | 33.63361 | -84.42700 | 1000 ft | 29 kts | 90° |
| 2026-04-19 17:23 | 33.63357 | -84.42460 | 998 ft | 29 kts | 89° |
| 2026-04-19 17:23 | 33.63362 | -84.42223 | 994 ft | 28 kts | 90° |
| 2026-04-19 17:23 | 33.63401 | -84.42120 | 993 ft | 10 kts | 321° |
| 2026-04-19 17:23 | 33.63458 | -84.42172 | 995 ft | 10 kts | 329° |
| 2026-04-19 17:24 | 33.63513 | -84.42213 | 997 ft | 9 kts | 321° |
| 2026-04-19 17:24 | 33.63560 | -84.42239 | 999 ft | 7 kts | 360° |
| 2026-04-19 17:24 | 33.63607 | -84.42234 | 1000 ft | 7 kts | 4° |
| 2026-04-19 17:24 | 33.63658 | -84.42235 | 1001 ft | 8 kts | 356° |
| 2026-04-19 17:25 | 33.63718 | -84.42235 | 1001 ft | 10 kts | 3° |
| 2026-04-19 17:25 | 33.63793 | -84.42234 | 1000 ft | 12 kts | 5° |
| 2026-04-19 17:25 | 33.63883 | -84.42236 | 1000 ft | 14 kts | 352° |
| 2026-04-19 17:25 | 33.63976 | -84.42242 | 1002 ft | 13 kts | 2° |
| 2026-04-19 17:26 | 33.64061 | -84.42239 | 1005 ft | 12 kts | 356° |
| 2026-04-19 17:26 | 33.64149 | -84.42242 | 1004 ft | 13 kts | 3° |
| 2026-04-19 17:26 | 33.64251 | -84.42239 | 1003 ft | 16 kts | 4° |
| 2026-04-19 17:26 | 33.64362 | -84.42235 | 1005 ft | 16 kts | 2° |
| 2026-04-19 17:27 | 33.64450 | -84.42235 | 1007 ft | 11 kts | 4° |
| 2026-04-19 17:27 | 33.64527 | -84.42235 | 1008 ft | 11 kts | 356° |
| 2026-04-19 17:27 | 33.64608 | -84.42240 | 1009 ft | 12 kts | 355° |
| 2026-04-19 17:27 | 33.64696 | -84.42240 | 1009 ft | 13 kts | 2° |
| 2026-04-19 17:28 | 33.64790 | -84.42238 | 1009 ft | 15 kts | 6° |
| 2026-04-19 17:28 | 33.64872 | -84.42239 | 1006 ft | 0 kts | 358° |
| 2026-04-19 17:29 | 33.64902 | -84.42240 | 1006 ft | 13 kts | 357° |
| 2026-04-19 17:29 | 33.65047 | -84.42239 | 1007 ft | 28 kts | 11° |
| 2026-04-19 17:29 | 33.65190 | -84.42298 | 1007 ft | 27 kts | 289° |
| 2026-04-19 17:30 | 33.65202 | -84.42404 | 1008 ft | 0 kts | 243° |